sensor_id;sensor_type;location;lat;lon;timestamp;P1;durP1;ratioP1;P2;durP2;ratioP2
11443;SDS011;5778;47.856;12.154;2023-07-02T00:01:46;5.83;;;2.30;;
11443;SDS011;5778;47.856;12.154;2023-07-02T00:04:13;2.10;;;2.00;;
11443;SDS011;5778;47.856;12.154;2023-07-02T00:06:41;2.60;;;2.40;;
11443;SDS011;5778;47.856;12.154;2023-07-02T00:09:08;2.60;;;2.40;;
11443;SDS011;5778;47.856;12.154;2023-07-02T00:11:36;2.70;;;2.10;;
11443;SDS011;5778;47.856;12.154;2023-07-02T00:14:04;3.63;;;2.83;;
11443;SDS011;5778;47.856;12.154;2023-07-02T00:16:31;3.93;;;2.43;;
11443;SDS011;5778;47.856;12.154;2023-07-02T00:18:59;3.80;;;2.60;;
11443;SDS011;5778;47.856;12.154;2023-07-02T00:21:26;2.60;;;2.30;;
11443;SDS011;5778;47.856;12.154;2023-07-02T00:23:54;3.07;;;2.20;;
11443;SDS011;5778;47.856;12.154;2023-07-02T00:26:23;2.43;;;2.23;;
11443;SDS011;5778;47.856;12.154;2023-07-02T00:28:50;3.23;;;2.30;;
11443;SDS011;5778;47.856;12.154;2023-07-02T00:31:17;3.00;;;2.20;;
11443;SDS011;5778;47.856;12.154;2023-07-02T00:33:44;4.03;;;2.30;;
11443;SDS011;5778;47.856;12.154;2023-07-02T00:36:12;3.10;;;2.10;;
11443;SDS011;5778;47.856;12.154;2023-07-02T00:38:40;2.47;;;2.27;;
11443;SDS011;5778;47.856;12.154;2023-07-02T00:41:08;2.97;;;2.30;;
11443;SDS011;5778;47.856;12.154;2023-07-02T00:43:35;2.50;;;2.30;;
11443;SDS011;5778;47.856;12.154;2023-07-02T00:46:04;3.00;;;2.13;;
11443;SDS011;5778;47.856;12.154;2023-07-02T00:48:31;2.40;;;2.23;;
11443;SDS011;5778;47.856;12.154;2023-07-02T00:50:59;4.93;;;2.70;;
11443;SDS011;5778;47.856;12.154;2023-07-02T00:53:28;2.67;;;2.33;;
11443;SDS011;5778;47.856;12.154;2023-07-02T00:55:55;2.30;;;2.10;;
11443;SDS011;5778;47.856;12.154;2023-07-02T00:58:21;2.73;;;2.53;;
11443;SDS011;5778;47.856;12.154;2023-07-02T01:00:48;2.47;;;2.30;;
11443;SDS011;5778;47.856;12.154;2023-07-02T01:03:15;2.87;;;2.50;;
11443;SDS011;5778;47.856;12.154;2023-07-02T01:05:42;2.33;;;2.00;;
11443;SDS011;5778;47.856;12.154;2023-07-02T01:08:09;2.27;;;2.07;;
11443;SDS011;5778;47.856;12.154;2023-07-02T01:10:38;2.67;;;2.47;;
11443;SDS011;5778;47.856;12.154;2023-07-02T01:13:08;2.20;;;2.10;;
11443;SDS011;5778;47.856;12.154;2023-07-02T01:15:41;3.33;;;2.50;;
11443;SDS011;5778;47.856;12.154;2023-07-02T01:18:11;6.23;;;2.30;;
11443;SDS011;5778;47.856;12.154;2023-07-02T01:20:41;3.83;;;2.50;;
11443;SDS011;5778;47.856;12.154;2023-07-02T01:23:09;2.77;;;2.43;;
11443;SDS011;5778;47.856;12.154;2023-07-02T01:25:36;2.60;;;2.20;;
11443;SDS011;5778;47.856;12.154;2023-07-02T01:28:04;3.60;;;2.43;;
11443;SDS011;5778;47.856;12.154;2023-07-02T01:30:31;2.70;;;2.50;;
11443;SDS011;5778;47.856;12.154;2023-07-02T01:32:58;2.90;;;2.47;;
11443;SDS011;5778;47.856;12.154;2023-07-02T01:35:25;2.57;;;2.37;;
11443;SDS011;5778;47.856;12.154;2023-07-02T01:37:53;2.23;;;2.03;;
11443;SDS011;5778;47.856;12.154;2023-07-02T01:40:20;1.60;;;1.50;;
11443;SDS011;5778;47.856;12.154;2023-07-02T01:42:47;1.90;;;1.80;;
11443;SDS011;5778;47.856;12.154;2023-07-02T01:45:14;1.90;;;1.80;;
11443;SDS011;5778;47.856;12.154;2023-07-02T01:47:41;1.80;;;1.70;;
11443;SDS011;5778;47.856;12.154;2023-07-02T01:50:09;1.50;;;1.40;;
11443;SDS011;5778;47.856;12.154;2023-07-02T01:52:36;1.40;;;1.30;;
11443;SDS011;5778;47.856;12.154;2023-07-02T01:55:05;1.07;;;1.07;;
11443;SDS011;5778;47.856;12.154;2023-07-02T01:57:33;1.23;;;1.23;;
11443;SDS011;5778;47.856;12.154;2023-07-02T02:00:00;1.30;;;1.20;;
11443;SDS011;5778;47.856;12.154;2023-07-02T02:02:26;1.00;;;1.00;;
11443;SDS011;5778;47.856;12.154;2023-07-02T02:04:53;1.00;;;1.00;;
11443;SDS011;5778;47.856;12.154;2023-07-02T02:07:21;1.10;;;1.10;;
11443;SDS011;5778;47.856;12.154;2023-07-02T02:09:48;1.30;;;1.20;;
11443;SDS011;5778;47.856;12.154;2023-07-02T02:12:16;1.80;;;1.40;;
11443;SDS011;5778;47.856;12.154;2023-07-02T02:14:43;1.00;;;1.00;;
11443;SDS011;5778;47.856;12.154;2023-07-02T02:17:10;1.40;;;1.30;;
11443;SDS011;5778;47.856;12.154;2023-07-02T02:19:37;1.37;;;1.23;;
11443;SDS011;5778;47.856;12.154;2023-07-02T02:22:04;1.00;;;1.00;;
11443;SDS011;5778;47.856;12.154;2023-07-02T02:24:32;1.43;;;1.10;;
11443;SDS011;5778;47.856;12.154;2023-07-02T02:26:59;1.40;;;1.30;;
11443;SDS011;5778;47.856;12.154;2023-07-02T02:29:28;0.80;;;0.80;;
11443;SDS011;5778;47.856;12.154;2023-07-02T02:31:55;0.90;;;0.90;;
11443;SDS011;5778;47.856;12.154;2023-07-02T02:34:22;4.80;;;2.20;;
11443;SDS011;5778;47.856;12.154;2023-07-02T02:36:49;2.03;;;1.30;;
11443;SDS011;5778;47.856;12.154;2023-07-02T02:39:16;1.30;;;1.30;;
11443;SDS011;5778;47.856;12.154;2023-07-02T02:41:43;3.27;;;1.67;;
11443;SDS011;5778;47.856;12.154;2023-07-02T02:44:12;1.60;;;1.50;;
11443;SDS011;5778;47.856;12.154;2023-07-02T02:46:42;1.10;;;1.00;;
11443;SDS011;5778;47.856;12.154;2023-07-02T02:49:08;1.60;;;1.20;;
11443;SDS011;5778;47.856;12.154;2023-07-02T02:51:35;1.03;;;1.00;;
11443;SDS011;5778;47.856;12.154;2023-07-02T02:54:02;1.63;;;1.10;;
11443;SDS011;5778;47.856;12.154;2023-07-02T02:56:29;1.20;;;1.20;;
11443;SDS011;5778;47.856;12.154;2023-07-02T02:58:56;1.37;;;1.27;;
11443;SDS011;5778;47.856;12.154;2023-07-02T03:01:23;3.57;;;1.50;;
11443;SDS011;5778;47.856;12.154;2023-07-02T03:03:55;1.30;;;1.30;;
11443;SDS011;5778;47.856;12.154;2023-07-02T03:06:25;2.00;;;1.27;;
11443;SDS011;5778;47.856;12.154;2023-07-02T03:08:51;3.23;;;1.30;;
11443;SDS011;5778;47.856;12.154;2023-07-02T03:11:18;2.00;;;1.33;;
11443;SDS011;5778;47.856;12.154;2023-07-02T03:13:45;1.43;;;1.33;;
11443;SDS011;5778;47.856;12.154;2023-07-02T03:16:12;2.57;;;1.30;;
11443;SDS011;5778;47.856;12.154;2023-07-02T03:18:39;1.73;;;1.30;;
11443;SDS011;5778;47.856;12.154;2023-07-02T03:21:07;1.83;;;1.50;;
11443;SDS011;5778;47.856;12.154;2023-07-02T03:23:35;2.47;;;1.73;;
11443;SDS011;5778;47.856;12.154;2023-07-02T03:26:02;5.03;;;2.20;;
11443;SDS011;5778;47.856;12.154;2023-07-02T03:28:29;2.63;;;1.47;;
11443;SDS011;5778;47.856;12.154;2023-07-02T03:30:56;1.10;;;1.10;;
11443;SDS011;5778;47.856;12.154;2023-07-02T03:33:23;1.87;;;1.60;;
11443;SDS011;5778;47.856;12.154;2023-07-02T03:35:50;2.00;;;1.30;;
11443;SDS011;5778;47.856;12.154;2023-07-02T03:38:18;1.50;;;1.30;;
11443;SDS011;5778;47.856;12.154;2023-07-02T03:40:46;1.50;;;1.40;;
11443;SDS011;5778;47.856;12.154;2023-07-02T03:43:13;2.70;;;2.17;;
11443;SDS011;5778;47.856;12.154;2023-07-02T03:45:39;3.40;;;2.00;;
11443;SDS011;5778;47.856;12.154;2023-07-02T03:48:06;1.70;;;1.60;;
11443;SDS011;5778;47.856;12.154;2023-07-02T03:50:33;3.97;;;2.10;;
11443;SDS011;5778;47.856;12.154;2023-07-02T03:53:00;2.20;;;2.10;;
11443;SDS011;5778;47.856;12.154;2023-07-02T03:55:29;2.07;;;1.97;;
11443;SDS011;5778;47.856;12.154;2023-07-02T03:57:55;2.10;;;1.90;;
11443;SDS011;5778;47.856;12.154;2023-07-02T04:00:22;2.40;;;2.20;;
11443;SDS011;5778;47.856;12.154;2023-07-02T04:02:50;2.83;;;2.57;;
11443;SDS011;5778;47.856;12.154;2023-07-02T04:05:17;3.83;;;2.90;;
11443;SDS011;5778;47.856;12.154;2023-07-02T04:07:45;4.17;;;3.23;;
11443;SDS011;5778;47.856;12.154;2023-07-02T04:10:12;4.50;;;3.40;;
11443;SDS011;5778;47.856;12.154;2023-07-02T04:12:40;5.17;;;3.57;;
11443;SDS011;5778;47.856;12.154;2023-07-02T04:15:07;3.23;;;2.80;;
11443;SDS011;5778;47.856;12.154;2023-07-02T04:17:35;4.43;;;3.20;;
11443;SDS011;5778;47.856;12.154;2023-07-02T04:20:02;3.67;;;3.00;;
11443;SDS011;5778;47.856;12.154;2023-07-02T04:22:29;3.07;;;2.87;;
11443;SDS011;5778;47.856;12.154;2023-07-02T04:24:56;2.57;;;2.40;;
11443;SDS011;5778;47.856;12.154;2023-07-02T04:27:24;2.47;;;2.30;;
11443;SDS011;5778;47.856;12.154;2023-07-02T04:29:52;2.30;;;2.17;;
11443;SDS011;5778;47.856;12.154;2023-07-02T04:32:20;2.13;;;2.03;;
11443;SDS011;5778;47.856;12.154;2023-07-02T04:34:47;2.30;;;2.10;;
11443;SDS011;5778;47.856;12.154;2023-07-02T04:37:14;2.50;;;2.30;;
11443;SDS011;5778;47.856;12.154;2023-07-02T04:39:41;2.20;;;2.00;;
11443;SDS011;5778;47.856;12.154;2023-07-02T04:42:08;5.80;;;2.20;;
11443;SDS011;5778;47.856;12.154;2023-07-02T04:44:40;2.10;;;1.87;;
11443;SDS011;5778;47.856;12.154;2023-07-02T04:47:09;2.43;;;2.23;;
11443;SDS011;5778;47.856;12.154;2023-07-02T04:49:37;2.33;;;2.20;;
11443;SDS011;5778;47.856;12.154;2023-07-02T04:52:04;2.17;;;2.00;;
11443;SDS011;5778;47.856;12.154;2023-07-02T04:54:31;2.70;;;2.20;;
11443;SDS011;5778;47.856;12.154;2023-07-02T04:56:58;2.60;;;2.40;;
11443;SDS011;5778;47.856;12.154;2023-07-02T04:59:25;6.03;;;2.40;;
11443;SDS011;5778;47.856;12.154;2023-07-02T05:01:52;4.07;;;2.77;;
11443;SDS011;5778;47.856;12.154;2023-07-02T05:04:20;2.90;;;2.67;;
11443;SDS011;5778;47.856;12.154;2023-07-02T05:06:47;3.73;;;2.33;;
11443;SDS011;5778;47.856;12.154;2023-07-02T05:09:14;4.00;;;2.70;;
11443;SDS011;5778;47.856;12.154;2023-07-02T05:11:41;2.43;;;2.10;;
11443;SDS011;5778;47.856;12.154;2023-07-02T05:14:08;4.60;;;2.43;;
11443;SDS011;5778;47.856;12.154;2023-07-02T05:16:34;4.10;;;2.20;;
11443;SDS011;5778;47.856;12.154;2023-07-02T05:19:01;3.00;;;2.13;;
11443;SDS011;5778;47.856;12.154;2023-07-02T05:21:29;3.90;;;2.20;;
11443;SDS011;5778;47.856;12.154;2023-07-02T05:23:56;4.17;;;2.83;;
11443;SDS011;5778;47.856;12.154;2023-07-02T05:26:23;3.23;;;2.80;;
11443;SDS011;5778;47.856;12.154;2023-07-02T05:28:51;7.27;;;2.97;;
11443;SDS011;5778;47.856;12.154;2023-07-02T05:31:18;4.60;;;2.60;;
11443;SDS011;5778;47.856;12.154;2023-07-02T05:33:45;3.90;;;2.20;;
11443;SDS011;5778;47.856;12.154;2023-07-02T05:36:12;2.27;;;2.07;;
11443;SDS011;5778;47.856;12.154;2023-07-02T05:38:41;3.00;;;2.40;;
11443;SDS011;5778;47.856;12.154;2023-07-02T05:41:09;4.20;;;2.60;;
11443;SDS011;5778;47.856;12.154;2023-07-02T05:43:35;3.00;;;2.60;;
11443;SDS011;5778;47.856;12.154;2023-07-02T05:46:02;5.43;;;2.63;;
11443;SDS011;5778;47.856;12.154;2023-07-02T05:48:29;2.70;;;2.37;;
11443;SDS011;5778;47.856;12.154;2023-07-02T05:50:56;3.70;;;2.53;;
11443;SDS011;5778;47.856;12.154;2023-07-02T05:53:23;3.23;;;2.23;;
11443;SDS011;5778;47.856;12.154;2023-07-02T05:55:51;3.77;;;2.53;;
11443;SDS011;5778;47.856;12.154;2023-07-02T05:58:18;2.60;;;2.33;;
11443;SDS011;5778;47.856;12.154;2023-07-02T06:00:45;2.60;;;2.40;;
11443;SDS011;5778;47.856;12.154;2023-07-02T06:03:14;3.00;;;2.67;;
11443;SDS011;5778;47.856;12.154;2023-07-02T06:05:45;2.53;;;2.33;;
11443;SDS011;5778;47.856;12.154;2023-07-02T06:08:14;3.03;;;2.60;;
11443;SDS011;5778;47.856;12.154;2023-07-02T06:10:41;2.50;;;2.30;;
11443;SDS011;5778;47.856;12.154;2023-07-02T06:13:09;2.90;;;2.27;;
11443;SDS011;5778;47.856;12.154;2023-07-02T06:15:36;2.97;;;2.67;;
11443;SDS011;5778;47.856;12.154;2023-07-02T06:18:03;2.50;;;2.30;;
11443;SDS011;5778;47.856;12.154;2023-07-02T06:20:30;2.30;;;2.10;;
11443;SDS011;5778;47.856;12.154;2023-07-02T06:22:57;3.13;;;2.73;;
11443;SDS011;5778;47.856;12.154;2023-07-02T06:25:24;2.77;;;2.50;;
11443;SDS011;5778;47.856;12.154;2023-07-02T06:27:51;5.40;;;2.70;;
11443;SDS011;5778;47.856;12.154;2023-07-02T06:30:21;5.90;;;5.30;;
11443;SDS011;5778;47.856;12.154;2023-07-02T06:32:48;3.77;;;2.77;;
11443;SDS011;5778;47.856;12.154;2023-07-02T06:35:15;4.20;;;2.50;;
11443;SDS011;5778;47.856;12.154;2023-07-02T06:37:42;5.13;;;2.67;;
11443;SDS011;5778;47.856;12.154;2023-07-02T06:40:09;2.73;;;2.53;;
11443;SDS011;5778;47.856;12.154;2023-07-02T06:42:37;3.17;;;2.90;;
11443;SDS011;5778;47.856;12.154;2023-07-02T06:45:04;2.53;;;2.33;;
11443;SDS011;5778;47.856;12.154;2023-07-02T06:47:34;2.93;;;2.63;;
11443;SDS011;5778;47.856;12.154;2023-07-02T06:50:00;4.83;;;3.00;;
11443;SDS011;5778;47.856;12.154;2023-07-02T06:52:27;3.53;;;3.00;;
11443;SDS011;5778;47.856;12.154;2023-07-02T06:54:54;2.70;;;2.50;;
11443;SDS011;5778;47.856;12.154;2023-07-02T06:57:21;3.27;;;2.93;;
11443;SDS011;5778;47.856;12.154;2023-07-02T06:59:48;5.97;;;4.17;;
11443;SDS011;5778;47.856;12.154;2023-07-02T07:02:16;3.80;;;3.13;;
11443;SDS011;5778;47.856;12.154;2023-07-02T07:04:44;3.70;;;3.10;;
11443;SDS011;5778;47.856;12.154;2023-07-02T07:07:11;3.83;;;3.00;;
11443;SDS011;5778;47.856;12.154;2023-07-02T07:09:38;4.37;;;2.83;;
11443;SDS011;5778;47.856;12.154;2023-07-02T07:12:05;8.00;;;5.30;;
11443;SDS011;5778;47.856;12.154;2023-07-02T07:14:33;6.20;;;5.10;;
11443;SDS011;5778;47.856;12.154;2023-07-02T07:17:00;5.30;;;4.30;;
11443;SDS011;5778;47.856;12.154;2023-07-02T07:19:27;5.40;;;4.40;;
11443;SDS011;5778;47.856;12.154;2023-07-02T07:21:55;2.50;;;2.30;;
11443;SDS011;5778;47.856;12.154;2023-07-02T07:24:22;3.00;;;2.70;;
11443;SDS011;5778;47.856;12.154;2023-07-02T07:26:49;4.00;;;3.60;;
11443;SDS011;5778;47.856;12.154;2023-07-02T07:29:16;6.10;;;3.30;;
11443;SDS011;5778;47.856;12.154;2023-07-02T07:31:43;4.20;;;3.70;;
11443;SDS011;5778;47.856;12.154;2023-07-02T07:34:11;3.83;;;3.00;;
11443;SDS011;5778;47.856;12.154;2023-07-02T07:36:38;5.17;;;3.07;;
11443;SDS011;5778;47.856;12.154;2023-07-02T07:39:06;3.57;;;3.07;;
11443;SDS011;5778;47.856;12.154;2023-07-02T07:41:33;3.73;;;3.10;;
11443;SDS011;5778;47.856;12.154;2023-07-02T07:44:00;3.63;;;2.90;;
11443;SDS011;5778;47.856;12.154;2023-07-02T07:46:27;3.13;;;2.83;;
11443;SDS011;5778;47.856;12.154;2023-07-02T07:48:54;3.80;;;2.87;;
11443;SDS011;5778;47.856;12.154;2023-07-02T07:51:21;3.07;;;2.77;;
11443;SDS011;5778;47.856;12.154;2023-07-02T07:53:47;3.37;;;2.67;;
11443;SDS011;5778;47.856;12.154;2023-07-02T07:56:16;2.80;;;2.47;;
11443;SDS011;5778;47.856;12.154;2023-07-02T07:58:43;4.57;;;2.80;;
11443;SDS011;5778;47.856;12.154;2023-07-02T08:01:10;3.37;;;3.07;;
11443;SDS011;5778;47.856;12.154;2023-07-02T08:03:37;2.77;;;2.53;;
11443;SDS011;5778;47.856;12.154;2023-07-02T08:06:04;3.93;;;2.57;;
11443;SDS011;5778;47.856;12.154;2023-07-02T08:08:32;3.10;;;2.57;;
11443;SDS011;5778;47.856;12.154;2023-07-02T08:10:58;4.83;;;2.50;;
11443;SDS011;5778;47.856;12.154;2023-07-02T08:13:27;3.30;;;2.60;;
11443;SDS011;5778;47.856;12.154;2023-07-02T08:15:54;3.67;;;2.57;;
11443;SDS011;5778;47.856;12.154;2023-07-02T08:18:21;3.53;;;2.80;;
11443;SDS011;5778;47.856;12.154;2023-07-02T08:20:47;4.70;;;2.70;;
11443;SDS011;5778;47.856;12.154;2023-07-02T08:23:14;5.73;;;2.83;;
11443;SDS011;5778;47.856;12.154;2023-07-02T08:25:41;2.63;;;2.03;;
11443;SDS011;5778;47.856;12.154;2023-07-02T08:28:08;4.80;;;2.23;;
11443;SDS011;5778;47.856;12.154;2023-07-02T08:30:36;6.87;;;3.00;;
11443;SDS011;5778;47.856;12.154;2023-07-02T08:33:03;3.17;;;2.40;;
11443;SDS011;5778;47.856;12.154;2023-07-02T08:35:30;2.20;;;2.00;;
11443;SDS011;5778;47.856;12.154;2023-07-02T08:37:57;2.30;;;2.10;;
11443;SDS011;5778;47.856;12.154;2023-07-02T08:40:24;1.93;;;1.83;;
11443;SDS011;5778;47.856;12.154;2023-07-02T08:42:51;2.10;;;2.00;;
11443;SDS011;5778;47.856;12.154;2023-07-02T08:45:18;2.50;;;2.30;;
11443;SDS011;5778;47.856;12.154;2023-07-02T08:47:47;2.67;;;2.47;;
11443;SDS011;5778;47.856;12.154;2023-07-02T08:50:15;2.97;;;2.73;;
11443;SDS011;5778;47.856;12.154;2023-07-02T08:52:43;3.53;;;3.23;;
11443;SDS011;5778;47.856;12.154;2023-07-02T08:55:10;3.60;;;2.70;;
11443;SDS011;5778;47.856;12.154;2023-07-02T08:57:37;2.87;;;2.67;;
11443;SDS011;5778;47.856;12.154;2023-07-02T09:00:06;3.10;;;2.80;;
11443;SDS011;5778;47.856;12.154;2023-07-02T09:02:35;3.10;;;2.80;;
11443;SDS011;5778;47.856;12.154;2023-07-02T09:05:05;3.23;;;3.03;;
11443;SDS011;5778;47.856;12.154;2023-07-02T09:07:32;3.70;;;3.27;;
11443;SDS011;5778;47.856;12.154;2023-07-02T09:10:09;3.50;;;3.20;;
11443;SDS011;5778;47.856;12.154;2023-07-02T09:12:36;3.60;;;3.30;;
11443;SDS011;5778;47.856;12.154;2023-07-02T09:15:04;3.63;;;3.33;;
11443;SDS011;5778;47.856;12.154;2023-07-02T09:17:33;3.90;;;3.60;;
11443;SDS011;5778;47.856;12.154;2023-07-02T09:20:01;4.00;;;3.70;;
11443;SDS011;5778;47.856;12.154;2023-07-02T09:22:34;3.83;;;3.40;;
11443;SDS011;5778;47.856;12.154;2023-07-02T09:25:01;4.53;;;3.80;;
11443;SDS011;5778;47.856;12.154;2023-07-02T09:27:35;4.07;;;3.73;;
11443;SDS011;5778;47.856;12.154;2023-07-02T09:30:07;3.50;;;3.20;;
11443;SDS011;5778;47.856;12.154;2023-07-02T09:32:35;4.03;;;3.33;;
11443;SDS011;5778;47.856;12.154;2023-07-02T09:35:03;3.67;;;3.37;;
11443;SDS011;5778;47.856;12.154;2023-07-02T09:37:30;3.07;;;2.77;;
11443;SDS011;5778;47.856;12.154;2023-07-02T09:39:59;3.30;;;3.07;;
11443;SDS011;5778;47.856;12.154;2023-07-02T09:42:28;3.50;;;3.20;;
11443;SDS011;5778;47.856;12.154;2023-07-02T09:44:55;3.43;;;3.20;;
11443;SDS011;5778;47.856;12.154;2023-07-02T09:47:25;4.27;;;3.40;;
11443;SDS011;5778;47.856;12.154;2023-07-02T09:49:54;3.67;;;3.37;;
11443;SDS011;5778;47.856;12.154;2023-07-02T09:52:24;3.40;;;3.07;;
11443;SDS011;5778;47.856;12.154;2023-07-02T09:54:52;4.40;;;3.30;;
11443;SDS011;5778;47.856;12.154;2023-07-02T09:57:21;3.40;;;3.10;;
11443;SDS011;5778;47.856;12.154;2023-07-02T09:59:48;4.13;;;3.23;;
11443;SDS011;5778;47.856;12.154;2023-07-02T10:02:15;2.80;;;2.60;;
11443;SDS011;5778;47.856;12.154;2023-07-02T10:04:43;3.33;;;2.63;;
11443;SDS011;5778;47.856;12.154;2023-07-02T10:07:11;2.73;;;2.53;;
11443;SDS011;5778;47.856;12.154;2023-07-02T10:09:43;2.43;;;2.23;;
11443;SDS011;5778;47.856;12.154;2023-07-02T10:12:15;2.47;;;2.27;;
11443;SDS011;5778;47.856;12.154;2023-07-02T10:14:45;2.90;;;2.30;;
11443;SDS011;5778;47.856;12.154;2023-07-02T10:17:22;2.50;;;2.30;;
11443;SDS011;5778;47.856;12.154;2023-07-02T10:19:51;2.20;;;2.10;;
11443;SDS011;5778;47.856;12.154;2023-07-02T10:22:18;2.63;;;2.43;;
11443;SDS011;5778;47.856;12.154;2023-07-02T10:24:52;2.73;;;2.53;;
11443;SDS011;5778;47.856;12.154;2023-07-02T10:27:34;2.40;;;2.20;;
11443;SDS011;5778;47.856;12.154;2023-07-02T10:30:05;2.13;;;2.03;;
11443;SDS011;5778;47.856;12.154;2023-07-02T10:32:33;2.00;;;1.90;;
11443;SDS011;5778;47.856;12.154;2023-07-02T10:35:01;2.50;;;2.30;;
11443;SDS011;5778;47.856;12.154;2023-07-02T10:37:35;2.43;;;2.23;;
11443;SDS011;5778;47.856;12.154;2023-07-02T10:40:03;2.40;;;2.20;;
11443;SDS011;5778;47.856;12.154;2023-07-02T10:42:44;2.40;;;2.20;;
11443;SDS011;5778;47.856;12.154;2023-07-02T10:45:12;2.20;;;2.00;;
11443;SDS011;5778;47.856;12.154;2023-07-02T10:47:40;2.00;;;1.90;;
11443;SDS011;5778;47.856;12.154;2023-07-02T10:50:13;2.00;;;1.90;;
11443;SDS011;5778;47.856;12.154;2023-07-02T10:52:43;2.00;;;1.90;;
11443;SDS011;5778;47.856;12.154;2023-07-02T10:55:10;2.70;;;2.50;;
11443;SDS011;5778;47.856;12.154;2023-07-02T10:57:38;3.33;;;2.90;;
11443;SDS011;5778;47.856;12.154;2023-07-02T11:00:06;2.70;;;2.50;;
11443;SDS011;5778;47.856;12.154;2023-07-02T11:02:35;3.23;;;2.60;;
11443;SDS011;5778;47.856;12.154;2023-07-02T11:05:03;2.87;;;2.67;;
11443;SDS011;5778;47.856;12.154;2023-07-02T11:07:31;2.83;;;2.50;;
11443;SDS011;5778;47.856;12.154;2023-07-02T11:09:58;2.40;;;2.30;;
11443;SDS011;5778;47.856;12.154;2023-07-02T11:12:27;2.40;;;2.30;;
11443;SDS011;5778;47.856;12.154;2023-07-02T11:14:54;2.50;;;2.30;;
11443;SDS011;5778;47.856;12.154;2023-07-02T11:17:24;2.83;;;2.50;;
11443;SDS011;5778;47.856;12.154;2023-07-02T11:19:53;2.70;;;2.50;;
11443;SDS011;5778;47.856;12.154;2023-07-02T11:22:20;2.43;;;2.23;;
11443;SDS011;5778;47.856;12.154;2023-07-02T11:24:58;3.20;;;2.90;;
11443;SDS011;5778;47.856;12.154;2023-07-02T11:27:35;2.80;;;2.43;;
11443;SDS011;5778;47.856;12.154;2023-07-02T11:30:02;2.87;;;2.67;;
11443;SDS011;5778;47.856;12.154;2023-07-02T11:32:29;5.23;;;3.10;;
11443;SDS011;5778;47.856;12.154;2023-07-02T11:34:58;3.73;;;3.40;;
11443;SDS011;5778;47.856;12.154;2023-07-02T11:37:25;3.70;;;3.40;;
11443;SDS011;5778;47.856;12.154;2023-07-02T11:39:53;3.33;;;3.03;;
11443;SDS011;5778;47.856;12.154;2023-07-02T11:42:20;3.00;;;2.80;;
11443;SDS011;5778;47.856;12.154;2023-07-02T11:44:47;4.70;;;4.20;;
11443;SDS011;5778;47.856;12.154;2023-07-02T11:47:14;6.83;;;4.70;;
11443;SDS011;5778;47.856;12.154;2023-07-02T11:49:41;5.80;;;5.20;;
11443;SDS011;5778;47.856;12.154;2023-07-02T11:52:09;7.77;;;6.27;;
11443;SDS011;5778;47.856;12.154;2023-07-02T11:54:37;6.93;;;5.87;;
11443;SDS011;5778;47.856;12.154;2023-07-02T11:57:05;6.60;;;6.00;;
11443;SDS011;5778;47.856;12.154;2023-07-02T11:59:32;7.70;;;6.50;;
11443;SDS011;5778;47.856;12.154;2023-07-02T12:01:59;9.57;;;7.00;;
11443;SDS011;5778;47.856;12.154;2023-07-02T12:04:26;8.67;;;6.40;;
11443;SDS011;5778;47.856;12.154;2023-07-02T12:06:52;7.13;;;6.27;;
11443;SDS011;5778;47.856;12.154;2023-07-02T12:09:21;9.03;;;6.73;;
11443;SDS011;5778;47.856;12.154;2023-07-02T12:11:47;9.37;;;7.53;;
11443;SDS011;5778;47.856;12.154;2023-07-02T12:14:14;9.30;;;7.50;;
11443;SDS011;5778;47.856;12.154;2023-07-02T12:16:41;10.50;;;8.13;;
11443;SDS011;5778;47.856;12.154;2023-07-02T12:19:08;8.80;;;7.90;;
11443;SDS011;5778;47.856;12.154;2023-07-02T12:21:35;9.60;;;7.90;;
11443;SDS011;5778;47.856;12.154;2023-07-02T12:24:02;11.60;;;8.50;;
11443;SDS011;5778;47.856;12.154;2023-07-02T12:26:35;10.23;;;8.47;;
11443;SDS011;5778;47.856;12.154;2023-07-02T12:29:02;10.80;;;8.67;;
11443;SDS011;5778;47.856;12.154;2023-07-02T12:31:29;11.43;;;8.97;;
11443;SDS011;5778;47.856;12.154;2023-07-02T12:33:56;11.00;;;9.07;;
11443;SDS011;5778;47.856;12.154;2023-07-02T12:36:23;11.30;;;8.87;;
11443;SDS011;5778;47.856;12.154;2023-07-02T12:38:50;12.33;;;9.57;;
11443;SDS011;5778;47.856;12.154;2023-07-02T12:41:16;11.37;;;9.17;;
11443;SDS011;5778;47.856;12.154;2023-07-02T12:43:45;9.90;;;8.90;;
11443;SDS011;5778;47.856;12.154;2023-07-02T12:46:12;10.50;;;8.80;;
11443;SDS011;5778;47.856;12.154;2023-07-02T12:48:39;10.17;;;8.70;;
11443;SDS011;5778;47.856;12.154;2023-07-02T12:51:05;11.67;;;8.97;;
11443;SDS011;5778;47.856;12.154;2023-07-02T12:53:32;10.53;;;8.17;;
11443;SDS011;5778;47.856;12.154;2023-07-02T12:55:59;10.77;;;8.57;;
11443;SDS011;5778;47.856;12.154;2023-07-02T12:58:26;9.30;;;7.90;;
11443;SDS011;5778;47.856;12.154;2023-07-02T13:00:54;10.33;;;8.03;;
11443;SDS011;5778;47.856;12.154;2023-07-02T13:03:21;9.50;;;8.30;;
11443;SDS011;5778;47.856;12.154;2023-07-02T13:05:50;10.03;;;7.90;;
11443;SDS011;5778;47.856;12.154;2023-07-02T13:08:17;9.07;;;7.97;;
11443;SDS011;5778;47.856;12.154;2023-07-02T13:10:44;9.10;;;7.63;;
11443;SDS011;5778;47.856;12.154;2023-07-02T13:13:12;8.70;;;6.97;;
11443;SDS011;5778;47.856;12.154;2023-07-02T13:15:39;9.87;;;7.80;;
11443;SDS011;5778;47.856;12.154;2023-07-02T13:18:07;8.77;;;7.57;;
11443;SDS011;5778;47.856;12.154;2023-07-02T13:20:34;10.07;;;7.60;;
11443;SDS011;5778;47.856;12.154;2023-07-02T13:23:02;8.87;;;6.87;;
11443;SDS011;5778;47.856;12.154;2023-07-02T13:25:29;9.33;;;6.83;;
11443;SDS011;5778;47.856;12.154;2023-07-02T13:27:56;7.50;;;6.50;;
11443;SDS011;5778;47.856;12.154;2023-07-02T13:30:23;8.37;;;6.57;;
11443;SDS011;5778;47.856;12.154;2023-07-02T13:32:52;7.80;;;6.80;;
11443;SDS011;5778;47.856;12.154;2023-07-02T13:35:20;8.13;;;7.33;;
11443;SDS011;5778;47.856;12.154;2023-07-02T13:37:47;7.30;;;6.57;;
11443;SDS011;5778;47.856;12.154;2023-07-02T13:40:14;8.63;;;6.63;;
11443;SDS011;5778;47.856;12.154;2023-07-02T13:42:41;7.57;;;6.40;;
11443;SDS011;5778;47.856;12.154;2023-07-02T13:45:09;8.13;;;6.87;;
11443;SDS011;5778;47.856;12.154;2023-07-02T13:47:36;7.00;;;6.30;;
11443;SDS011;5778;47.856;12.154;2023-07-02T13:50:03;7.70;;;6.03;;
11443;SDS011;5778;47.856;12.154;2023-07-02T13:52:32;9.30;;;6.30;;
11443;SDS011;5778;47.856;12.154;2023-07-02T13:54:59;7.73;;;5.97;;
11443;SDS011;5778;47.856;12.154;2023-07-02T13:57:26;8.50;;;6.03;;
11443;SDS011;5778;47.856;12.154;2023-07-02T13:59:54;6.57;;;5.90;;
11443;SDS011;5778;47.856;12.154;2023-07-02T14:02:22;7.30;;;6.50;;
11443;SDS011;5778;47.856;12.154;2023-07-02T14:04:49;6.67;;;6.00;;
11443;SDS011;5778;47.856;12.154;2023-07-02T14:07:16;6.77;;;6.00;;
11443;SDS011;5778;47.856;12.154;2023-07-02T14:09:43;6.83;;;6.13;;
11443;SDS011;5778;47.856;12.154;2023-07-02T14:12:09;7.60;;;6.53;;
11443;SDS011;5778;47.856;12.154;2023-07-02T14:14:37;7.40;;;6.10;;
11443;SDS011;5778;47.856;12.154;2023-07-02T14:17:06;6.43;;;5.43;;
11443;SDS011;5778;47.856;12.154;2023-07-02T14:19:33;6.70;;;5.90;;
11443;SDS011;5778;47.856;12.154;2023-07-02T14:22:00;6.20;;;5.60;;
11443;SDS011;5778;47.856;12.154;2023-07-02T14:24:27;6.10;;;5.30;;
11443;SDS011;5778;47.856;12.154;2023-07-02T14:26:55;6.50;;;5.20;;
11443;SDS011;5778;47.856;12.154;2023-07-02T14:29:22;5.07;;;4.63;;
11443;SDS011;5778;47.856;12.154;2023-07-02T14:31:49;5.47;;;4.90;;
11443;SDS011;5778;47.856;12.154;2023-07-02T14:34:17;5.80;;;5.20;;
11443;SDS011;5778;47.856;12.154;2023-07-02T14:36:44;5.07;;;4.57;;
11443;SDS011;5778;47.856;12.154;2023-07-02T14:39:11;6.60;;;5.07;;
11443;SDS011;5778;47.856;12.154;2023-07-02T14:41:38;5.53;;;5.03;;
11443;SDS011;5778;47.856;12.154;2023-07-02T14:44:05;5.47;;;4.97;;
11443;SDS011;5778;47.856;12.154;2023-07-02T14:46:32;5.40;;;4.90;;
11443;SDS011;5778;47.856;12.154;2023-07-02T14:48:59;7.50;;;4.97;;
11443;SDS011;5778;47.856;12.154;2023-07-02T14:51:27;5.57;;;4.80;;